Other Surface Observations
Issued by NWS Great Falls, MT

Home | Current Version | Previous Version | Text Only | Print | Product List | Glossary On
Versions: 1 2 3 4 5 6 7 8 9 10 11 12 13 14 15 16 17 18 19 20 21 22 23 24 25 26 27 28 29 30 31 32 33 34 35 36 37 38 39 40 41 42 43 44 45 46 47 48 49 50
364
SXUS55 KTFX 061207
OSOTFX

AREA AWOS OBSERVATIONS
NATIONAL WEATHER SERVICE GREAT FALLS MT
0507 AM MST Sat Feb 06 2016

METAR K6S8 061155Z AUTO 21010KT 40SM 03/M11 A3000 RMK A01 T00331105
METAR K6S8 061055Z AUTO 21015KT 40SM 03/M11 A3001 RMK A01 T00331111
METAR K7S1 061155Z AUTO 19014KT 40SM M01/M09 A3017 RMK A01 T10111094
METAR K97M 061155Z AUTO 22008KT 40SM 01/M10 A2993 RMK A01 T00111100
METAR K9S2 061155Z AUTO 21012KT 40SM 03/M07 A2974 RMK A01 T00331066
METAR K9S5 061155Z AUTO 21026KT 40SM 02/M16 A3009 RMK A01 T00161161
METAR KRPX 061155Z AUTO 22012KT 40SM 06/M08 A2988 RMK A01 T00551083
METAR KS01 061155Z AUTO 19012KT 40SM 07/M02 A2985 RMK A01 T00721016
METAR KS34 061155Z AUTO 24006KT 4SM 04/00 A3010 RMK A01 T00440000
METAR KTHM 061155Z AUTO 28007KT 25SM 03/02 A3013 RMK A01 T00330016



USA.gov is the U.S. government's official web portal to all federal, state and local government web resources and services.